Time;durP1;ratioP1;P1;durP2;ratioP2;P2;SDS_P1;SDS_P2;PMS_P1;PMS_P2;Temp;Humidity;BMP_temperature;BMP_pressure;BME280_temperature;BME280_humidity;BME280_pressure;Samples;Min_cycle;Max_cycle;Signal;HPM_P1;HPM_P2
2021/04/21 00:01:56;;;;;;;39.78;23.55;;;4.70;99.90;;;;;;4992768;28;20026;-83
2021/04/21 00:04:23;;;;;;;43.05;23.23;;;4.60;99.90;;;;;;4993211;28;20517;-83
2021/04/21 00:06:49;;;;;;;45.50;25.38;;;4.60;99.90;;;;;;4992812;28;20085;-83
2021/04/21 00:09:19;;;;;;;39.20;24.40;;;4.60;99.90;;;;;;4984298;28;20460;-83
2021/04/21 00:11:48;;;;;;;37.05;22.75;;;4.60;99.90;;;;;;5003201;28;20502;-83
2021/04/21 00:14:17;;;;;;;39.85;24.48;;;4.50;99.90;;;;;;4992488;28;20042;-83
2021/04/21 00:16:47;;;;;;;44.75;25.52;;;4.40;99.90;;;;;;4992562;28;20038;-83
2021/04/21 00:19:16;;;;;;;36.58;23.50;;;4.50;99.90;;;;;;5008594;28;20402;-83
2021/04/21 00:21:44;;;;;;;51.70;26.17;;;4.50;99.90;;;;;;4992532;28;20026;-83
2021/04/21 00:24:11;;;;;;;47.90;25.38;;;4.40;99.90;;;;;;4991688;28;20030;-83
2021/04/21 00:26:38;;;;;;;48.13;26.25;;;4.40;99.90;;;;;;4993744;28;20517;-83
2021/04/21 00:29:07;;;;;;;53.97;26.98;;;4.40;99.90;;;;;;4993255;28;20034;-83
2021/04/21 00:31:34;;;;;;;55.80;27.25;;;4.20;99.90;;;;;;4993584;28;20026;-83
2021/04/21 00:34:01;;;;;;;59.05;26.63;;;4.30;99.90;;;;;;4992743;28;20061;-83
2021/04/21 00:36:33;;;;;;;42.83;27.02;;;4.20;99.90;;;;;;4993506;28;20438;-83
2021/04/21 00:39:00;;;;;;;51.15;28.65;;;4.30;99.90;;;;;;4993321;28;20065;-83
2021/04/21 00:41:37;;;;;;;43.72;26.35;;;4.30;99.90;;;;;;4993301;28;20033;-83
2021/04/21 00:44:06;;;;;;;46.10;25.27;;;4.30;99.90;;;;;;4980433;28;20562;-83
2021/04/21 00:46:38;;;;;;;53.05;28.33;;;4.20;99.90;;;;;;4972783;28;20023;-82
2021/04/21 00:49:17;;;;;;;41.50;25.10;;;4.10;99.90;;;;;;4977573;28;20073;-83
2021/04/21 00:52:22;;;;;;;48.70;26.50;;;4.00;99.90;;;;;;4973990;28;20027;-83
2021/04/21 00:55:06;;;;;;;48.45;27.85;;;3.90;99.90;;;;;;4971467;28;20026;-83
2021/04/21 00:57:52;;;;;;;47.42;26.13;;;4.00;99.90;;;;;;4988521;28;20023;-83
2021/04/21 01:00:33;;;;;;;45.00;25.92;;;3.90;99.90;;;;;;4973683;28;20050;-83
2021/04/21 01:03:03;;;;;;;48.83;27.23;;;3.80;99.90;;;;;;4972301;28;20031;-82
2021/04/21 01:05:42;;;;;;;43.75;25.95;;;3.70;99.90;;;;;;4972629;28;20030;-83
2021/04/21 01:08:14;;;;;;;47.20;27.40;;;3.70;99.90;;;;;;4972612;28;20081;-83
2021/04/21 01:10:52;;;;;;;47.60;26.05;;;3.60;99.90;;;;;;4978399;28;20041;-83
2021/04/21 01:13:18;;;;;;;44.28;25.60;;;3.60;99.90;;;;;;4990811;28;20027;-82
2021/04/21 01:15:47;;;;;;;51.63;27.25;;;3.50;99.90;;;;;;4992236;28;20121;-83
2021/04/21 01:18:14;;;;;;;51.92;26.60;;;3.40;99.90;;;;;;4992685;28;20120;-83
2021/04/21 01:20:51;;;;;;;44.65;24.23;;;3.40;99.90;;;;;;4992551;28;20034;-84
2021/04/21 01:23:46;;;;;;;47.90;25.52;;;3.30;99.90;;;;;;5007370;28;20080;-83
2021/04/21 01:26:35;;;;;;;38.38;23.60;;;3.30;99.90;;;;;;4992665;28;20034;-83
2021/04/21 01:29:02;;;;;;;44.80;24.65;;;3.20;99.90;;;;;;4981981;28;20458;-83
2021/04/21 01:31:32;;;;;;;42.90;25.92;;;3.10;99.90;;;;;;4972952;28;20030;-83
2021/04/21 01:34:00;;;;;;;45.95;26.20;;;3.10;99.90;;;;;;4974583;28;20014;-83
2021/04/21 01:36:28;;;;;;;49.47;26.50;;;3.00;99.90;;;;;;4990966;28;20029;-83
2021/04/21 01:38:58;;;;;;;46.45;26.67;;;3.00;99.90;;;;;;5007525;28;20029;-83
2021/04/21 01:41:30;;;;;;;53.90;29.70;;;3.00;99.90;;;;;;5007416;28;20117;-83
2021/04/21 01:44:03;;;;;;;52.03;29.05;;;3.10;99.90;;;;;;4989594;28;20034;-83
2021/04/21 01:46:36;;;;;;;48.77;28.10;;;3.20;99.90;;;;;;4992271;28;20101;-83
2021/04/21 01:49:11;;;;;;;49.60;26.90;;;3.20;99.90;;;;;;5007410;28;20262;-83
2021/04/21 01:51:42;;;;;;;50.63;27.98;;;3.20;99.90;;;;;;4990761;28;20479;-83
2021/04/21 01:54:15;;;;;;;47.67;27.63;;;3.10;99.90;;;;;;4990908;28;20042;-84
2021/04/21 01:56:51;;;;;;;59.40;30.83;;;3.10;99.90;;;;;;4990864;28;20522;-83
2021/04/21 01:59:32;;;;;;;54.08;29.42;;;3.10;99.90;;;;;;4987059;28;20495;-83
2021/04/21 02:02:03;;;;;;;52.25;28.95;;;3.00;99.90;;;;;;4972840;28;20038;-83
2021/04/21 02:04:50;;;;;;;56.15;32.65;;;3.00;99.90;;;;;;4980412;28;20045;-83
2021/04/21 02:07:31;;;;;;;61.38;32.60;;;3.10;99.90;;;;;;4994465;28;20022;-82
2021/04/21 02:10:11;;;;;;;55.08;31.20;;;3.00;99.90;;;;;;4996137;28;20105;-82
2021/04/21 02:12:52;;;;;;;51.55;30.23;;;3.00;99.90;;;;;;4995998;28;20022;-83
2021/04/21 02:15:43;;;;;;;65.15;36.55;;;2.90;99.90;;;;;;4991126;28;20115;-83
2021/04/21 02:18:46;;;;;;;66.20;36.90;;;2.80;99.90;;;;;;4975357;28;20081;-83
2021/04/21 02:21:19;;;;;;;63.83;36.00;;;2.80;99.90;;;;;;4976399;28;20038;-83
2021/04/21 02:23:59;;;;;;;60.05;35.10;;;2.90;99.90;;;;;;4976439;28;20035;-82
2021/04/21 02:26:26;;;;;;;63.58;34.92;;;2.90;99.90;;;;;;4991723;28;20019;-83
2021/04/21 02:29:02;;;;;;;63.67;34.33;;;2.90;99.90;;;;;;4999799;28;20058;-83
2021/04/21 02:31:53;;;;;;;52.13;31.83;;;2.90;99.90;;;;;;4995801;28;20491;-83
2021/04/21 02:34:21;;;;;;;52.95;30.77;;;2.90;99.90;;;;;;4994412;28;20096;-83
2021/04/21 02:37:04;;;;;;;65.57;35.70;;;2.90;99.90;;;;;;4994021;28;20535;-83
2021/04/21 02:39:42;;;;;;;60.47;34.67;;;2.80;99.90;;;;;;4995647;28;20096;-83
2021/04/21 02:42:40;;;;;;;63.10;36.85;;;2.90;99.90;;;;;;4994138;28;20133;-82
2021/04/21 02:45:13;;;;;;;71.78;38.83;;;2.90;99.90;;;;;;4989936;28;20042;-83
2021/04/21 02:47:46;;;;;;;71.97;39.80;;;2.80;99.90;;;;;;4991014;28;20019;-83
2021/04/21 02:50:24;;;;;;;72.00;39.20;;;2.90;99.90;;;;;;4975874;28;20056;-82
2021/04/21 02:53:14;;;;;;;65.95;40.55;;;2.80;99.90;;;;;;4990866;28;20023;-83
2021/04/21 02:55:59;;;;;;;65.63;36.78;;;2.90;99.90;;;;;;4974319;28;20045;-83
2021/04/21 02:58:47;;;;;;;64.45;36.78;;;2.90;99.90;;;;;;4978675;28;20116;-84
2021/04/21 03:01:41;;;;;;;66.90;38.78;;;2.90;99.90;;;;;;4993984;28;20034;-82
2021/04/21 03:04:33;;;;;;;62.42;37.63;;;2.90;99.90;;;;;;4994155;28;20072;-82
2021/04/21 03:07:01;;;;;;;59.72;34.63;;;2.80;99.90;;;;;;4993910;28;20027;-83
2021/04/21 03:09:58;;;;;;;63.53;35.35;;;2.80;99.90;;;;;;4993816;28;20476;-83
2021/04/21 03:12:28;;;;;;;67.07;35.50;;;2.70;99.90;;;;;;4986608;28;20038;-83
2021/04/21 03:15:04;;;;;;;82.18;40.97;;;2.70;99.90;;;;;;4978238;28;20026;-82
2021/04/21 03:17:31;;;;;;;74.53;40.63;;;2.70;99.90;;;;;;4994844;28;20034;-83
2021/04/21 03:20:02;;;;;;;70.78;39.42;;;2.70;99.90;;;;;;5010104;28;20026;-83
2021/04/21 03:22:30;;;;;;;66.72;38.30;;;2.70;99.90;;;;;;4993653;28;20026;-83
2021/04/21 03:25:02;;;;;;;85.47;40.83;;;2.80;99.90;;;;;;4993745;28;20046;-82
2021/04/21 03:27:32;;;;;;;78.30;39.58;;;2.90;99.90;;;;;;4993595;28;20109;-83
2021/04/21 03:30:04;;;;;;;71.60;40.55;;;2.80;99.90;;;;;;4979647;28;20031;-83
2021/04/21 03:32:36;;;;;;;72.03;37.97;;;2.80;99.90;;;;;;4974120;28;20757;-82
2021/04/21 03:35:02;;;;;;;65.55;36.17;;;2.80;99.90;;;;;;4987042;28;20023;-83
2021/04/21 03:37:49;;;;;;;70.22;38.85;;;2.70;99.90;;;;;;4994667;28;20036;-83
2021/04/21 03:40:16;;;;;;;89.70;45.15;;;2.70;99.90;;;;;;4993262;28;20030;-82
2021/04/21 03:42:43;;;;;;;73.95;40.58;;;2.90;99.90;;;;;;4994351;28;20038;-83
2021/04/21 03:45:11;;;;;;;69.78;41.65;;;2.90;99.90;;;;;;4993432;28;20042;-83
2021/04/21 03:47:37;;;;;;;79.65;42.28;;;2.90;99.90;;;;;;4993174;28;20150;-83
2021/04/21 03:50:06;;;;;;;79.80;42.72;;;2.90;99.90;;;;;;4994352;28;20037;-83
2021/04/21 03:52:39;;;;;;;79.07;44.15;;;2.90;99.90;;;;;;5009351;28;20121;-83
2021/04/21 03:55:06;;;;;;;76.00;41.17;;;2.90;99.90;;;;;;4977782;28;20042;-82
2021/04/21 03:57:36;;;;;;;79.10;42.50;;;2.90;99.90;;;;;;4975058;28;20114;-82
2021/04/21 04:00:04;;;;;;;122.50;58.03;;;2.90;99.90;;;;;;4991163;28;20026;-83
2021/04/21 04:02:33;;;;;;;133.82;70.10;;;3.10;99.90;;;;;;5009204;28;20033;-83
2021/04/21 04:05:06;;;;;;;160.68;76.45;;;3.40;99.90;;;;;;4993057;28;20046;-83
2021/04/21 04:07:37;;;;;;;180.38;84.43;;;3.90;99.90;;;;;;5009200;28;20453;-82
2021/04/21 04:10:04;;;;;;;182.05;89.22;;;4.40;99.90;;;;;;4994047;28;20050;-83
2021/04/21 04:12:35;;;;;;;191.93;93.93;;;4.70;99.90;;;;;;4993913;28;20027;-82
2021/04/21 04:15:01;;;;;;;184.80;92.45;;;5.00;99.90;;;;;;4977030;28;20061;-83
2021/04/21 04:17:29;;;;;;;190.95;92.55;;;5.20;99.90;;;;;;4993876;28;20038;-83
2021/04/21 04:19:57;;;;;;;198.52;95.45;;;5.30;99.90;;;;;;4993868;28;20394;-83
2021/04/21 04:22:24;;;;;;;194.90;90.70;;;5.50;99.90;;;;;;4993671;28;20026;-83
2021/04/21 04:24:53;;;;;;;189.85;87.70;;;5.50;99.90;;;;;;4997146;28;20603;-82
2021/04/21 04:27:23;;;;;;;193.63;86.45;;;5.60;99.90;;;;;;4989364;28;20030;-83
2021/04/21 04:29:51;;;;;;;189.98;85.82;;;5.70;99.90;;;;;;4989550;28;20022;-83
2021/04/21 04:32:19;;;;;;;187.23;85.20;;;5.80;99.90;;;;;;4993596;28;20026;-83
2021/04/21 04:34:47;;;;;;;175.77;83.88;;;5.80;99.90;;;;;;4992768;28;20467;-83
2021/04/21 04:37:15;;;;;;;179.35;82.55;;;5.90;99.90;;;;;;4993523;28;20034;-83
2021/04/21 04:39:41;;;;;;;172.77;81.95;;;5.90;99.90;;;;;;4981194;28;20038;-83
2021/04/21 04:42:08;;;;;;;176.52;80.90;;;5.90;99.90;;;;;;4972658;28;20513;-84
2021/04/21 04:44:42;;;;;;;170.73;76.80;;;5.90;99.90;;;;;;5002525;28;20049;-84
2021/04/21 04:47:09;;;;;;;;;;;6.00;99.90;;;;;;4992551;28;20054;-83
2021/04/21 04:49:43;;;;;;;150.40;71.72;;;6.10;99.90;;;;;;4988802;28;20345;-83
2021/04/21 04:52:11;;;;;;;156.30;73.70;;;6.10;99.90;;;;;;4973964;28;20082;-84
2021/04/21 04:54:39;;;;;;;152.35;72.63;;;6.20;99.90;;;;;;4971776;28;20039;-83
2021/04/21 04:57:07;;;;;;;138.45;66.63;;;6.20;99.90;;;;;;4973749;28;20058;-84
2021/04/21 04:59:36;;;;;;;152.23;68.35;;;6.30;99.90;;;;;;4973931;28;20039;-83
2021/04/21 05:02:03;;;;;;;145.18;66.20;;;6.30;99.90;;;;;;4973591;28;20026;-83
2021/04/21 05:04:36;;;;;;;154.88;65.07;;;6.40;99.90;;;;;;4973037;28;20027;-83
2021/04/21 05:07:07;;;;;;;133.30;61.25;;;6.50;99.90;;;;;;4973683;28;20051;-82
2021/04/21 05:09:39;;;;;;;121.45;58.45;;;6.70;99.90;;;;;;4984944;28;20454;-83
2021/04/21 05:12:10;;;;;;;123.10;57.30;;;6.80;99.90;;;;;;4992923;28;20046;-83
2021/04/21 05:14:45;;;;;;;125.93;58.72;;;6.90;99.90;;;;;;4977522;28;20042;-83
2021/04/21 05:17:42;;;;;;;128.02;57.10;;;7.00;99.90;;;;;;4973530;28;20491;-83
2021/04/21 05:20:32;;;;;;;113.15;54.25;;;7.10;99.90;;;;;;4986138;28;20034;-84
2021/04/21 05:23:07;;;;;;;128.75;54.15;;;7.20;99.90;;;;;;4973332;28;20031;-84
2021/04/21 05:25:32;;;;;;;102.65;49.53;;;7.20;99.90;;;;;;4972583;28;20026;-84
2021/04/21 05:28:23;;;;;;;98.60;48.42;;;7.30;99.90;;;;;;4973927;28;20431;-83
2021/04/21 05:31:26;;;;;;;87.78;42.88;;;7.30;99.90;;;;;;4973255;28;20050;-84
2021/04/21 05:34:29;;;;;;;92.00;42.63;;;7.30;99.90;;;;;;4971130;28;20030;-83
2021/04/21 05:37:13;;;;;;;79.00;39.70;;;7.30;99.90;;;;;;4973103;28;20031;-83
2021/04/21 05:39:52;;;;;;;;;;;7.30;99.90;;;;;;4983799;28;20026;-83
2021/04/21 05:42:42;;;;;;;111.07;55.83;;;7.30;99.90;;;;;;5007626;28;19913;-83
2021/04/21 05:45:48;;;;;;;73.88;35.67;;;7.30;99.90;;;;;;4990875;28;20062;-84
2021/04/21 05:48:35;;;;;;;65.25;38.85;;;7.30;99.90;;;;;;4973142;28;20557;-84
2021/04/21 05:51:12;;;;;;;73.38;37.08;;;7.30;99.90;;;;;;4987937;28;20513;-83
2021/04/21 05:53:59;;;;;;;60.17;32.88;;;7.30;99.90;;;;;;4987543;28;20038;-84
2021/04/21 05:56:43;;;;;;;58.88;32.53;;;7.30;99.90;;;;;;4987938;28;20474;-84
2021/04/21 05:59:26;;;;;;;67.90;32.10;;;7.30;99.90;;;;;;4983689;28;20038;-84
2021/04/21 06:01:53;;;;;;;67.93;30.05;;;7.30;99.90;;;;;;4983017;28;20027;-85
2021/04/21 06:04:19;;;;;;;56.83;30.63;;;7.30;99.90;;;;;;4972305;28;20509;-83
2021/04/21 06:06:44;;;;;;;60.78;29.63;;;7.40;99.90;;;;;;4971573;28;20030;-83
2021/04/21 06:09:11;;;;;;;67.28;35.35;;;7.40;99.90;;;;;;4980970;28;20030;-83
2021/04/21 06:11:37;;;;;;;51.28;24.05;;;7.40;99.90;;;;;;4992042;28;20041;-84
2021/04/21 06:14:05;;;;;;;40.65;21.23;;;7.50;99.90;;;;;;4981238;28;20043;-85
2021/04/21 06:16:32;;;;;;;43.90;23.42;;;7.60;99.90;;;;;;4972659;28;20441;-84
2021/04/21 06:18:59;;;;;;;37.20;20.40;;;7.60;99.90;;;;;;4976203;28;20026;-84
2021/04/21 06:21:28;;;;;;;38.20;19.40;;;7.60;99.90;;;;;;4990836;28;20092;-84
2021/04/21 06:23:55;;;;;;;33.30;18.05;;;7.70;99.90;;;;;;4991220;28;20023;-84
2021/04/21 06:26:26;;;;;;;72.80;22.80;;;7.80;99.90;;;;;;4991964;28;20030;-82
2021/04/21 06:29:09;;;;;;;38.53;19.65;;;7.80;99.90;;;;;;4991787;28;20092;-83
2021/04/21 06:31:43;;;;;;;30.95;16.40;;;7.90;99.90;;;;;;4977018;28;20034;-84
2021/04/21 06:34:11;;;;;;;31.15;16.35;;;7.90;99.90;;;;;;4970647;28;20122;-83
2021/04/21 06:36:44;;;;;;;26.13;15.43;;;8.00;99.90;;;;;;4972508;28;20055;-84
2021/04/21 06:39:10;;;;;;;39.63;14.85;;;8.00;99.90;;;;;;4980321;28;20030;-84
2021/04/21 06:41:36;;;;;;;27.48;15.43;;;8.00;99.90;;;;;;4990545;28;20030;-84
2021/04/21 06:44:03;;;;;;;31.10;14.48;;;8.00;99.90;;;;;;4990279;28;20394;-83
2021/04/21 06:46:29;;;;;;;45.78;14.32;;;8.00;99.90;;;;;;4989080;28;20378;-84
2021/04/21 06:49:00;;;;;;;30.10;13.55;;;8.10;99.90;;;;;;4988193;28;20094;-83
2021/04/21 06:51:28;;;;;;;20.10;12.50;;;8.20;99.90;;;;;;4987426;28;20033;-83
2021/04/21 06:53:54;;;;;;;22.30;11.27;;;8.30;99.90;;;;;;4989848;28;20022;-83
2021/04/21 06:56:32;;;;;;;22.67;9.13;;;8.50;99.90;;;;;;4987445;28;20019;-82
2021/04/21 06:58:58;;;;;;;14.35;7.95;;;8.60;99.90;;;;;;4986092;28;20030;-83
2021/04/21 07:01:30;;;;;;;21.60;6.82;;;8.50;99.90;;;;;;4990734;28;20026;-82
2021/04/21 07:04:17;;;;;;;22.17;5.80;;;8.70;99.90;;;;;;5006114;28;20034;-85
2021/04/21 07:06:44;;;;;;;15.77;3.33;;;8.90;99.90;;;;;;4989267;28;20054;-85
2021/04/21 07:09:22;;;;;;;20.27;3.70;;;9.10;99.90;;;;;;4990867;28;20026;-84
2021/04/21 07:11:56;;;;;;;13.27;2.28;;;9.10;99.90;;;;;;4991942;28;20023;-83
2021/04/21 07:14:23;;;;;;;22.83;3.28;;;9.20;99.90;;;;;;4989740;28;20044;-85
2021/04/21 07:16:52;;;;;;;16.00;2.55;;;9.40;99.90;;;;;;4991774;28;20069;-84
2021/04/21 07:19:19;;;;;;;23.67;3.63;;;9.40;99.90;;;;;;4992272;28;20058;-83
2021/04/21 07:21:45;;;;;;;8.93;2.50;;;9.30;99.90;;;;;;4992248;28;20038;-82
2021/04/21 07:24:15;;;;;;;20.50;3.60;;;9.30;99.90;;;;;;4991279;28;20038;-84
2021/04/21 07:26:43;;;;;;;10.80;2.80;;;9.30;99.90;;;;;;4990679;28;20033;-83
2021/04/21 07:29:16;;;;;;;19.70;3.45;;;9.40;99.90;;;;;;4991771;28;20022;-81
2021/04/21 07:31:42;;;;;;;18.17;2.85;;;9.20;99.90;;;;;;4991641;28;20081;-82
2021/04/21 07:34:25;;;;;;;19.23;3.05;;;9.10;99.90;;;;;;4989153;28;20125;-83
2021/04/21 07:36:50;;;;;;;23.38;2.72;;;9.10;99.90;;;;;;5005978;28;20410;-82
2021/04/21 07:39:16;;;;;;;21.58;3.63;;;9.10;99.90;;;;;;4990954;28;20030;-84
2021/04/21 07:41:44;;;;;;;25.42;3.55;;;9.10;99.90;;;;;;4990205;28;20033;-83
2021/04/21 07:44:29;;;;;;;24.85;2.90;;;9.20;99.90;;;;;;4989045;28;20030;-82
2021/04/21 07:47:09;;;;;;;28.90;3.75;;;9.40;99.90;;;;;;4998293;28;20061;-82
2021/04/21 07:49:46;;;;;;;26.25;4.10;;;9.20;99.90;;;;;;4990041;28;20380;-85
2021/04/21 07:52:26;;;;;;;14.23;2.75;;;9.30;99.90;;;;;;4989923;28;20615;-82
2021/04/21 07:55:12;;;;;;;19.45;3.42;;;9.20;99.90;;;;;;4981515;28;20402;-82
2021/04/21 07:57:46;;;;;;;11.52;3.00;;;9.10;99.90;;;;;;4988142;28;20113;-82
2021/04/21 08:00:25;;;;;;;16.42;2.95;;;9.20;99.90;;;;;;4990700;28;20466;-81
2021/04/21 08:02:50;;;;;;;25.63;3.17;;;9.50;99.90;;;;;;4989969;28;20032;-82
2021/04/21 08:05:17;;;;;;;20.55;3.17;;;9.80;99.90;;;;;;5004204;28;20030;-84
2021/04/21 08:07:52;;;;;;;25.48;3.08;;;9.80;99.90;;;;;;4973270;28;20034;-84
2021/04/21 08:10:24;;;;;;;13.80;2.38;;;9.80;99.90;;;;;;4973402;28;20026;-83
2021/04/21 08:12:52;;;;;;;36.10;4.32;;;9.80;99.90;;;;;;4974568;28;20027;-84
2021/04/21 08:15:18;;;;;;;23.23;3.70;;;10.20;99.90;;;;;;4972549;28;20026;-84
2021/04/21 08:18:04;;;;;;;15.05;2.85;;;10.30;99.90;;;;;;4973127;28;20033;-84
2021/04/21 08:20:36;;;;;;;12.65;2.50;;;10.60;99.90;;;;;;4974384;28;20074;-83
2021/04/21 08:23:04;;;;;;;21.60;2.70;;;10.70;99.90;;;;;;4974310;28;20033;-86
2021/04/21 08:25:30;;;;;;;28.83;3.42;;;10.50;99.90;;;;;;4990514;28;20117;-84
2021/04/21 08:27:56;;;;;;;23.13;3.15;;;10.80;99.90;;;;;;4991792;28;20025;-85
2021/04/21 08:30:23;;;;;;;18.25;3.20;;;11.00;99.90;;;;;;4990506;28;20051;-82
2021/04/21 08:32:48;;;;;;;15.98;2.45;;;10.80;99.90;;;;;;4986848;28;20031;-83
2021/04/21 08:35:15;;;;;;;26.67;4.03;;;10.50;99.90;;;;;;4988517;28;20038;-84
2021/04/21 08:37:42;;;;;;;25.45;3.10;;;10.50;99.90;;;;;;4986456;28;20026;-84
2021/04/21 08:40:09;;;;;;;22.77;4.65;;;10.10;99.90;;;;;;4992336;28;20380;-84
2021/04/21 08:42:38;;;;;;;20.85;4.30;;;10.00;99.90;;;;;;4990844;28;20085;-84
2021/04/21 08:45:04;;;;;;;39.30;4.25;;;9.90;99.90;;;;;;4992409;28;20040;-84
2021/04/21 08:47:33;;;;;;;46.53;4.00;;;9.70;99.90;;;;;;4992947;28;20075;-83
2021/04/21 08:49:59;;;;;;;23.42;4.10;;;9.70;99.90;;;;;;4993051;28;20065;-84
2021/04/21 08:52:29;;;;;;;19.30;3.78;;;9.90;99.90;;;;;;4987990;28;20050;-85
2021/04/21 08:54:56;;;;;;;19.10;2.95;;;9.90;99.90;;;;;;4990129;28;20026;-83
2021/04/21 08:57:22;;;;;;;24.13;3.72;;;9.80;99.90;;;;;;4983938;28;20549;-84
2021/04/21 08:59:48;;;;;;;19.70;2.83;;;10.00;99.90;;;;;;4986370;28;20081;-84
2021/04/21 09:02:16;;;;;;;26.35;3.80;;;10.20;99.90;;;;;;4982662;28;20034;-84
2021/04/21 09:04:43;;;;;;;26.92;2.70;;;10.30;99.90;;;;;;4985777;28;20030;-84
2021/04/21 09:07:10;;;;;;;20.25;3.08;;;10.80;99.90;;;;;;4987054;28;20053;-85
2021/04/21 09:09:35;;;;;;;25.67;2.53;;;10.60;99.90;;;;;;4987361;28;20045;-85
2021/04/21 09:12:06;;;;;;;31.27;3.70;;;10.30;99.90;;;;;;4988422;28;20030;-85
2021/04/21 09:14:32;;;;;;;16.42;3.08;;;10.30;99.90;;;;;;4986588;28;20034;-86
2021/04/21 09:16:58;;;;;;;22.20;3.70;;;10.80;99.90;;;;;;4987477;28;20030;-84
2021/04/21 09:19:24;;;;;;;25.98;4.13;;;10.30;99.90;;;;;;4987204;28;20064;-85
2021/04/21 09:22:07;;;;;;;18.45;2.88;;;10.10;99.90;;;;;;4987220;28;20053;-85
2021/04/21 09:24:37;;;;;;;27.27;4.70;;;10.70;99.90;;;;;;4986288;28;20034;-84
2021/04/21 09:27:33;;;;;;;20.25;3.92;;;10.60;99.90;;;;;;4988651;28;20022;-85
2021/04/21 09:30:09;;;;;;;19.85;3.47;;;10.30;99.90;;;;;;4985135;28;20026;-85
2021/04/21 09:32:49;;;;;;;20.42;2.95;;;10.20;99.90;;;;;;4980497;28;20022;-85
2021/04/21 09:35:18;;;;;;;24.35;3.67;;;10.40;99.90;;;;;;4981331;28;20038;-85
2021/04/21 09:37:43;;;;;;;38.33;5.45;;;10.60;99.90;;;;;;4987181;28;20756;-85
2021/04/21 09:40:10;;;;;;;36.88;6.07;;;10.30;99.90;;;;;;4988141;28;20042;-84
2021/04/21 09:42:37;;;;;;;27.40;4.15;;;10.00;99.90;;;;;;4983745;28;20041;-84
2021/04/21 09:45:03;;;;;;;30.98;4.75;;;10.10;99.90;;;;;;4987652;28;20061;-84
2021/04/21 09:47:28;;;;;;;20.42;3.92;;;10.10;99.90;;;;;;4991336;28;20483;-83
2021/04/21 09:49:55;;;;;;;44.80;6.43;;;10.50;99.90;;;;;;4991036;28;20033;-85
2021/04/21 09:52:21;;;;;;;20.65;3.83;;;10.70;99.90;;;;;;4992164;28;20042;-83
2021/04/21 09:54:48;;;;;;;19.90;3.25;;;10.90;99.90;;;;;;4991430;28;20026;-84
2021/04/21 09:57:14;;;;;;;15.45;3.22;;;10.60;99.90;;;;;;4987727;28;20407;-83
2021/04/21 09:59:41;;;;;;;30.58;3.83;;;10.80;99.90;;;;;;4987935;28;20041;-85
2021/04/21 10:02:38;;;;;;;14.93;2.72;;;10.80;99.90;;;;;;4973043;28;20030;-85
2021/04/21 10:05:29;;;;;;;28.08;3.80;;;11.00;99.90;;;;;;4989941;28;20022;-86
2021/04/21 10:08:33;;;;;;;23.80;4.05;;;10.70;99.90;;;;;;4990975;28;20025;-84
2021/04/21 10:11:01;;;;;;;22.67;3.90;;;11.00;99.90;;;;;;4970459;28;20105;-85
2021/04/21 10:13:43;;;;;;;27.48;4.55;;;10.90;99.90;;;;;;4954283;28;20123;-86
2021/04/21 10:16:10;;;;;;;15.88;3.67;;;11.00;99.90;;;;;;4982621;28;20046;-87
2021/04/21 10:18:36;;;;;;;23.42;4.20;;;11.40;99.90;;;;;;4984572;28;20062;-86
2021/04/21 10:21:04;;;;;;;26.38;3.88;;;11.50;99.90;;;;;;4970900;28;20027;-86
2021/04/21 10:23:30;;;;;;;21.20;3.97;;;11.50;99.90;;;;;;4972620;28;20023;-81
2021/04/21 10:26:05;;;;;;;19.65;3.60;;;11.10;99.90;;;;;;4976653;28;20034;-84
2021/04/21 10:28:32;;;;;;;31.60;4.68;;;10.50;99.90;;;;;;4996569;28;20026;-82
2021/04/21 10:30:57;;;;;;;22.55;4.22;;;10.70;99.90;;;;;;4995931;28;20038;-82
2021/04/21 10:33:26;;;;;;;24.50;3.53;;;11.00;99.90;;;;;;4991373;28;20027;-81
2021/04/21 10:35:51;;;;;;;17.17;3.30;;;10.80;99.90;;;;;;4975520;28;20031;-81
2021/04/21 10:38:22;;;;;;;23.33;2.95;;;11.00;99.90;;;;;;4991314;28;20069;-81
2021/04/21 10:40:47;;;;;;;20.80;2.92;;;11.60;99.90;;;;;;4976255;28;20073;-81
2021/04/21 10:43:13;;;;;;;14.77;3.47;;;11.50;99.90;;;;;;4977708;28;20066;-82
2021/04/21 10:45:48;;;;;;;22.98;3.75;;;10.90;99.90;;;;;;4988111;28;20450;-81
2021/04/21 10:48:37;;;;;;;20.52;2.70;;;10.80;99.90;;;;;;4979882;28;20025;-82
2021/04/21 10:51:03;;;;;;;16.98;3.67;;;11.10;99.90;;;;;;4995422;28;20026;-82
2021/04/21 10:53:28;;;;;;;16.80;3.58;;;11.50;99.90;;;;;;4994292;28;20391;-81
2021/04/21 10:55:54;;;;;;;25.25;4.65;;;11.60;99.90;;;;;;4994662;28;20073;-82
2021/04/21 10:58:19;;;;;;;29.45;3.80;;;11.30;99.90;;;;;;4995789;28;20034;-83
2021/04/21 11:00:51;;;;;;;31.13;3.90;;;11.30;99.90;;;;;;4994494;28;20026;-81
2021/04/21 11:03:27;;;;;;;24.60;3.05;;;11.00;99.90;;;;;;4994999;28;20026;-82
2021/04/21 11:06:00;;;;;;;18.13;3.20;;;10.50;99.90;;;;;;4993413;28;20034;-83
2021/04/21 11:08:28;;;;;;;17.13;2.78;;;10.00;99.90;;;;;;4994011;28;20072;-83
2021/04/21 11:11:02;;;;;;;11.32;2.47;;;9.80;99.90;;;;;;4993750;28;20022;-82
2021/04/21 11:13:41;;;;;;;25.05;3.05;;;9.60;99.90;;;;;;4991650;28;20098;-82
2021/04/21 11:16:12;;;;;;;12.25;2.60;;;10.00;99.90;;;;;;4974355;28;20035;-84
2021/04/21 11:18:39;;;;;;;21.52;3.50;;;10.50;99.90;;;;;;4982601;28;20109;-85
2021/04/21 11:21:06;;;;;;;10.27;1.25;;;10.70;99.90;;;;;;5010080;28;20495;-86
2021/04/21 11:24:05;;;;;;;11.40;1.80;;;10.80;99.90;;;;;;4994568;28;20560;-84
2021/04/21 11:26:32;;;;;;;11.77;1.60;;;11.20;99.90;;;;;;4993761;28;20187;-85
2021/04/21 11:29:26;;;;;;;14.60;2.72;;;11.30;99.90;;;;;;4994726;28;20027;-83
2021/04/21 11:31:52;;;;;;;22.10;2.47;;;11.30;99.90;;;;;;4994790;28;20033;-84
2021/04/21 11:34:28;;;;;;;14.50;2.00;;;11.20;99.90;;;;;;4979641;28;20031;-84
2021/04/21 11:37:00;;;;;;;13.18;2.50;;;11.30;99.90;;;;;;4974080;28;20031;-84
2021/04/21 11:39:44;;;;;;;22.15;2.55;;;10.70;99.90;;;;;;4975218;28;20027;-83
2021/04/21 11:42:29;;;;;;;11.57;2.95;;;10.20;99.90;;;;;;4975035;28;20031;-85
2021/04/21 11:44:58;;;;;;;19.55;3.53;;;9.90;99.90;;;;;;4984876;28;20041;-84
2021/04/21 11:47:37;;;;;;;19.95;2.15;;;10.10;99.90;;;;;;4993294;28;20391;-82
2021/04/21 11:50:18;;;;;;;13.57;2.13;;;10.20;99.90;;;;;;4989578;28;20104;-84
2021/04/21 11:53:06;;;;;;;25.85;2.20;;;10.10;99.90;;;;;;4988507;28;20033;-84
2021/04/21 11:55:36;;;;;;;14.77;2.42;;;10.40;99.90;;;;;;4982203;28;20127;-86
2021/04/21 11:58:05;;;;;;;7.07;1.98;;;10.90;99.90;;;;;;5000858;28;20045;-84
2021/04/21 12:00:43;;;;;;;17.75;2.28;;;11.20;99.90;;;;;;4988783;28;20398;-81
2021/04/21 12:03:23;;;;;;;12.30;2.40;;;12.00;99.90;;;;;;4989696;28;20034;-83
2021/04/21 12:05:56;;;;;;;27.50;2.70;;;12.20;99.90;;;;;;4987888;28;20026;-84
2021/04/21 12:08:24;;;;;;;13.48;2.35;;;12.20;99.90;;;;;;4990086;28;20022;-85
2021/04/21 12:10:50;;;;;;;11.52;1.80;;;12.10;99.90;;;;;;4990145;28;20636;-84
2021/04/21 12:13:19;;;;;;;29.25;2.55;;;12.20;99.90;;;;;;4985442;28;20046;-83
2021/04/21 12:15:47;;;;;;;16.58;3.13;;;12.30;99.90;;;;;;4985619;28;20030;-83
2021/04/21 12:18:33;;;;;;;14.35;2.90;;;12.30;99.90;;;;;;4988309;28;20061;-82
2021/04/21 12:21:26;;;;;;;15.23;2.28;;;11.90;99.90;;;;;;4988394;28;20022;-79
2021/04/21 12:23:56;;;;;;;16.63;3.97;;;11.50;99.90;;;;;;4985449;28;20626;-79
2021/04/21 12:26:30;;;;;;;16.38;4.18;;;11.80;99.90;;;;;;4989541;28;20030;-79
2021/04/21 12:28:57;;;;;;;24.48;3.47;;;12.20;99.90;;;;;;4981989;28;20054;-79
2021/04/21 12:31:24;;;;;;;12.77;2.53;;;12.40;99.90;;;;;;4988439;28;20101;-79
2021/04/21 12:33:53;;;;;;;15.68;3.38;;;12.00;99.90;;;;;;4988540;28;20460;-79
2021/04/21 12:36:21;;;;;;;15.02;2.58;;;12.10;99.90;;;;;;4988820;28;20080;-79
2021/04/21 12:39:07;;;;;;;21.30;3.65;;;11.50;99.90;;;;;;4988665;28;20031;-78
2021/04/21 12:41:33;;;;;;;18.05;2.40;;;12.20;99.90;;;;;;4988267;28;20391;-79
2021/04/21 12:44:19;;;;;;;29.48;4.25;;;12.90;99.90;;;;;;4987505;28;20034;-79
2021/04/21 12:46:47;;;;;;;13.20;2.38;;;12.70;99.90;;;;;;4987984;28;20424;-78
2021/04/21 12:49:13;;;;;;;18.63;2.65;;;12.20;99.90;;;;;;5002847;28;20038;-79
2021/04/21 12:51:47;;;;;;;30.17;3.17;;;10.80;99.90;;;;;;4988869;28;20037;-79
2021/04/21 12:54:34;;;;;;;30.23;2.83;;;10.20;99.90;;;;;;4987394;28;20026;-83
2021/04/21 12:57:02;;;;;;;14.80;2.38;;;9.90;99.90;;;;;;4981086;28;20031;-80
2021/04/21 12:59:28;;;;;;;33.78;3.45;;;10.10;99.90;;;;;;4987617;28;20109;-82
2021/04/21 13:01:53;;;;;;;19.88;2.65;;;10.40;99.90;;;;;;4989268;28;20097;-83
2021/04/21 13:04:19;;;;;;;28.75;4.28;;;10.50;99.90;;;;;;5003531;28;20030;-84
2021/04/21 13:06:49;;;;;;;15.32;2.85;;;10.30;99.90;;;;;;4987746;28;20061;-85
2021/04/21 13:09:17;;;;;;;24.27;3.13;;;10.20;99.90;;;;;;4989362;28;20025;-84